Time;durP1;ratioP1;P1;durP2;ratioP2;P2;SDS_P1;SDS_P2;PMS_P1;PMS_P2;Temp;Humidity;BMP_temperature;BMP_pressure;BME280_temperature;BME280_humidity;BME280_pressure;Samples;Min_cycle;Max_cycle;Signal;HPM_P1;HPM_P2
2022/07/26 00:02:15;;;;;;;;;;;;;;;;;;5095373;28;789;-71
2022/07/26 00:04:41;;;;;;;;;;;;;;;;;;5095929;28;1001;-71
2022/07/26 00:07:06;;;;;;;;;;;;;;;;;;5094627;28;1901;-71
2022/07/26 00:09:32;;;;;;;;;;;;;;;;;;5095680;28;919;-71
2022/07/26 00:11:57;;;;;;;;;;;;;;;;;;5096140;28;1030;-71
2022/07/26 00:14:22;;;;;;;;;;;;;;;;;;5095535;28;979;-71
2022/07/26 00:16:47;;;;;;;;;;;;;;;;;;5094458;28;907;-71
2022/07/26 00:19:13;;;;;;;;;;;;;;;;;;5094020;28;912;-71
2022/07/26 00:21:38;;;;;;;;;;;;;;;;;;5096092;28;888;-72
2022/07/26 00:24:03;;;;;;;;;;;;;;;;;;5095971;28;1031;-71
2022/07/26 00:26:29;;;;;;;;;;;;;;;;;;5095392;28;1894;-71
2022/07/26 00:28:54;;;;;;;;;;;;;;;;;;5095986;28;912;-71
2022/07/26 00:31:19;;;;;;;;;;;;;;;;;;5095742;28;916;-71
2022/07/26 00:33:44;;;;;;;;;;;;;;;;;;5096081;28;1050;-71
2022/07/26 00:36:10;;;;;;;;;;;;;;;;;;5095713;28;876;-71
2022/07/26 00:38:35;;;;;;;;;;;;;;;;;;5095757;28;813;-71
2022/07/26 00:41:00;;;;;;;;;;;;;;;;;;5076999;28;1277;-71
2022/07/26 00:43:26;;;;;;;;;;;;;;;;;;5092398;28;1477;-71
2022/07/26 00:45:51;;;;;;;;;;;;;;;;;;5094533;28;935;-71
2022/07/26 00:48:16;;;;;;;;;;;;;;;;;;5094298;28;1921;-71
2022/07/26 00:50:42;;;;;;;;;;;;;;;;;;5093928;28;1135;-71
2022/07/26 00:53:08;;;;;;;;;;;;;;;;;;5094882;28;884;-71
2022/07/26 00:55:33;;;;;;;;;;;;;;;;;;5093508;28;1384;-71
2022/07/26 00:58:00;;;;;;;;;;;;;;;;;;5094984;28;1034;-71
2022/07/26 01:00:26;;;;;;;;;;;;;;;;;;5094406;28;861;-71
2022/07/26 01:02:54;;;;;;;;;;;;;;;;;;5094225;28;1596;-69
2022/07/26 01:05:20;;;;;;;;;;;;;;;;;;5094175;28;1007;-71
2022/07/26 01:07:45;;;;;;;;;;;;;;;;;;5093319;28;1890;-71
2022/07/26 01:10:12;;;;;;;;;;;;;;;;;;5093180;28;1150;-70
2022/07/26 01:12:38;;;;;;;;;;;;;;;;;;5093502;28;1165;-69
2022/07/26 01:15:04;;;;;;;;;;;;;;;;;;5094606;28;947;-71
2022/07/26 01:17:29;;;;;;;;;;;;;;;;;;5094696;28;820;-70
2022/07/26 01:19:56;;;;;;;;;;;;;;;;;;5093938;28;888;-70
2022/07/26 01:22:21;;;;;;;;;;;;;;;;;;5093287;28;1138;-70
2022/07/26 01:24:46;;;;;;;;;;;;;;;;;;5094809;28;911;-70
2022/07/26 01:27:12;;;;;;;;;;;;;;;;;;5094485;28;1952;-70
2022/07/26 01:29:38;;;;;;;;;;;;;;;;;;5093567;28;1180;-70
2022/07/26 01:32:04;;;;;;;;;;;;;;;;;;5093309;28;1250;-69
2022/07/26 01:34:29;;;;;;;;;;;;;;;;;;5092611;28;1150;-70
2022/07/26 01:36:55;;;;;;;;;;;;;;;;;;5093205;28;1250;-70
2022/07/26 01:39:20;;;;;;;;;;;;;;;;;;5092270;28;1181;-69
2022/07/26 01:41:46;;;;;;;;;;;;;;;;;;5094299;28;899;-70
2022/07/26 01:44:11;;;;;;;;;;;;;;;;;;5092557;28;896;-70
2022/07/26 01:46:36;;;;;;;;;;;;;;;;;;5092575;28;1905;-70
2022/07/26 01:49:02;;;;;;;;;;;;;;;;;;5094398;28;885;-70
2022/07/26 01:51:27;;;;;;;;;;;;;;;;;;5092631;28;883;-70
2022/07/26 01:53:52;;;;;;;;;;;;;;;;;;5094232;28;841;-69
2022/07/26 01:56:18;;;;;;;;;;;;;;;;;;5093707;28;821;-70
2022/07/26 01:58:43;;;;;;;;;;;;;;;;;;5093963;28;983;-71
2022/07/26 02:01:08;;;;;;;;;;;;;;;;;;5092645;28;896;-70
2022/07/26 02:03:34;;;;;;;;;;;;;;;;;;5093832;28;876;-70
2022/07/26 02:05:59;;;;;;;;;;;;;;;;;;5092818;28;1150;-70
2022/07/26 02:08:25;;;;;;;;;;;;;;;;;;5093759;28;1878;-70
2022/07/26 02:10:59;;;;;;;;;;;;;;;;;;5093178;28;857;-70
2022/07/26 02:13:25;;;;;;;;;;;;;;;;;;5093917;28;950;-70
2022/07/26 02:15:50;;;;;;;;;;;;;;;;;;5094161;28;824;-70
2022/07/26 02:18:16;;;;;;;;;;;;;;;;;;5093839;28;912;-70
2022/07/26 02:20:41;;;;;;;;;;;;;;;;;;5093812;28;867;-70
2022/07/26 02:23:06;;;;;;;;;;;;;;;;;;5094119;28;915;-70
2022/07/26 02:25:32;;;;;;;;;;;;;;;;;;5092588;28;1403;-70
2022/07/26 02:27:57;;;;;;;;;;;;;;;;;;5093875;28;1910;-70
2022/07/26 02:30:22;;;;;;;;;;;;;;;;;;5093255;28;812;-70
2022/07/26 02:32:48;;;;;;;;;;;;;;;;;;5092390;28;908;-70
2022/07/26 02:35:13;;;;;;;;;;;;;;;;;;5091757;28;1316;-70
2022/07/26 02:37:42;;;;;;;;;;;;;;;;;;5093922;28;987;-70
2022/07/26 02:40:07;;;;;;;;;;;;;;;;;;5092190;28;1168;-70
2022/07/26 02:42:32;;;;;;;;;;;;;;;;;;5091439;28;1128;-70
2022/07/26 02:44:58;;;;;;;;;;;;;;;;;;5091982;28;1474;-71
2022/07/26 02:47:23;;;;;;;;;;;;;;;;;;5092946;28;1874;-70
2022/07/26 02:49:48;;;;;;;;;;;;;;;;;;5093286;28;975;-69
2022/07/26 02:52:14;;;;;;;;;;;;;;;;;;5091683;28;1178;-69
2022/07/26 02:54:39;;;;;;;;;;;;;;;;;;5093499;28;979;-70
2022/07/26 02:57:04;;;;;;;;;;;;;;;;;;5093653;28;991;-70
2022/07/26 02:59:29;;;;;;;;;;;;;;;;;;5092427;28;891;-70
2022/07/26 03:01:54;;;;;;;;;;;;;;;;;;5093393;28;1011;-70
2022/07/26 03:04:20;;;;;;;;;;;;;;;;;;5093160;28;891;-70
2022/07/26 03:06:45;;;;;;;;;;;;;;;;;;5091740;28;1894;-69
2022/07/26 03:09:10;;;;;;;;;;;;;;;;;;5092870;28;852;-70
2022/07/26 03:11:36;;;;;;;;;;;;;;;;;;5096391;28;903;-71
2022/07/26 03:14:01;;;;;;;;;;;;;;;;;;5092438;28;884;-71
2022/07/26 03:16:27;;;;;;;;;;;;;;;;;;5091474;28;840;-71
2022/07/26 03:18:52;;;;;;;;;;;;;;;;;;5093168;28;883;-70
2022/07/26 03:21:17;;;;;;;;;;;;;;;;;;5092765;28;889;-70
2022/07/26 03:23:42;;;;;;;;;;;;;;;;;;5096656;28;891;-70
2022/07/26 03:26:07;;;;;;;;;;;;;;;;;;5101411;28;1152;-70
2022/07/26 03:28:33;;;;;;;;;;;;;;;;;;5093276;28;1977;-70
2022/07/26 03:30:59;;;;;;;;;;;;;;;;;;5093713;28;921;-70
2022/07/26 03:33:24;;;;;;;;;;;;;;;;;;5093072;28;841;-71
2022/07/26 03:35:49;;;;;;;;;;;;;;;;;;5092990;28;845;-70
2022/07/26 03:38:15;;;;;;;;;;;;;;;;;;5092286;28;928;-70
2022/07/26 03:40:40;;;;;;;;;;;;;;;;;;5093427;28;836;-70
2022/07/26 03:43:05;;;;;;;;;;;;;;;;;;5091777;28;1367;-70
2022/07/26 03:45:30;;;;;;;;;;;;;;;;;;5093284;28;869;-69
2022/07/26 03:47:55;;;;;;;;;;;;;;;;;;5097444;28;1906;-70
2022/07/26 03:50:21;;;;;;;;;;;;;;;;;;5094082;28;868;-70
2022/07/26 03:52:46;;;;;;;;;;;;;;;;;;5093633;28;919;-70
2022/07/26 03:57:55;;;;;;;;;;;;;;;;;;5094631;28;667;-70
2022/07/26 04:00:20;;;;;;;;;;;;;;;;;;5092047;28;1294;-70
2022/07/26 04:02:46;;;;;;;;;;;;;;;;;;5093908;28;1022;-70
2022/07/26 04:05:11;;;;;;;;;;;;;;;;;;5092639;28;1162;-70
2022/07/26 04:07:41;;;;;;;;;;;;;;;;;;5092628;28;1974;-70
2022/07/26 04:10:06;;;;;;;;;;;;;;;;;;5092104;28;1914;-70
2022/07/26 04:12:32;;;;;;;;;;;;;;;;;;5091910;28;1153;-70
2022/07/26 04:14:57;;;;;;;;;;;;;;;;;;5092336;28;809;-70
2022/07/26 04:17:22;;;;;;;;;;;;;;;;;;5092664;28;868;-70
2022/07/26 04:19:47;;;;;;;;;;;;;;;;;;5074616;28;1081;-70
2022/07/26 04:22:13;;;;;;;;;;;;;;;;;;5096130;28;884;-70
2022/07/26 04:24:38;;;;;;;;;;;;;;;;;;5078474;28;1178;-70
2022/07/26 04:27:03;;;;;;;;;;;;;;;;;;5096696;28;1913;-70
2022/07/26 04:29:28;;;;;;;;;;;;;;;;;;5096773;28;812;-70
2022/07/26 04:31:54;;;;;;;;;;;;;;;;;;5096685;28;865;-70
2022/07/26 04:34:19;;;;;;;;;;;;;;;;;;5095992;28;974;-70
2022/07/26 04:36:44;;;;;;;;;;;;;;;;;;5078304;28;1158;-70
2022/07/26 04:39:10;;;;;;;;;;;;;;;;;;5096785;28;998;-70
2022/07/26 04:41:35;;;;;;;;;;;;;;;;;;5096432;28;907;-70
2022/07/26 04:44:00;;;;;;;;;;;;;;;;;;5096428;28;820;-70
2022/07/26 04:46:25;;;;;;;;;;;;;;;;;;5094500;28;1913;-70
2022/07/26 04:48:50;;;;;;;;;;;;;;;;;;5096296;28;883;-71
2022/07/26 04:51:16;;;;;;;;;;;;;;;;;;5094649;28;1543;-70
2022/07/26 04:53:41;;;;;;;;;;;;;;;;;;5096631;28;880;-70
2022/07/26 04:56:06;;;;;;;;;;;;;;;;;;5095542;28;1007;-71
2022/07/26 04:58:32;;;;;;;;;;;;;;;;;;5095492;28;900;-70
2022/07/26 05:00:58;;;;;;;;;;;;;;;;;;5100642;28;1270;-70
2022/07/26 05:03:24;;;;;;;;;;;;;;;;;;5104185;28;1159;-70
2022/07/26 05:05:49;;;;;;;;;;;;;;;;;;5105128;28;1155;-70
2022/07/26 05:08:15;;;;;;;;;;;;;;;;;;5102052;28;1905;-70
2022/07/26 05:10:41;;;;;;;;;;;;;;;;;;5095830;28;1394;-71
2022/07/26 05:13:06;;;;;;;;;;;;;;;;;;5115174;28;1229;-70
2022/07/26 05:15:50;;;;;;;;;;;;;;;;;;5114330;28;1174;-70
2022/07/26 05:18:16;;;;;;;;;;;;;;;;;;5115845;28;851;-70
2022/07/26 05:20:41;;;;;;;;;;;;;;;;;;5114791;28;1260;-70
2022/07/26 05:23:07;;;;;;;;;;;;;;;;;;5115586;28;1130;-70
2022/07/26 05:25:33;;;;;;;;;;;;;;;;;;5115997;28;829;-70
2022/07/26 05:27:58;;;;;;;;;;;;;;;;;;5114658;28;1930;-70
2022/07/26 05:30:26;;;;;;;;;;;;;;;;;;5115602;28;912;-70
2022/07/26 05:32:51;;;;;;;;;;;;;;;;;;5114041;28;1589;-70
2022/07/26 05:35:16;;;;;;;;;;;;;;;;;;5115867;28;883;-70
2022/07/26 05:37:42;;;;;;;;;;;;;;;;;;5114355;28;872;-70
2022/07/26 05:40:07;;;;;;;;;;;;;;;;;;5114963;28;891;-70
2022/07/26 05:42:33;;;;;;;;;;;;;;;;;;5115373;28;843;-70
2022/07/26 05:44:58;;;;;;;;;;;;;;;;;;5115017;28;911;-70
2022/07/26 05:47:23;;;;;;;;;;;;;;;;;;5114493;28;1966;-71
2022/07/26 05:49:48;;;;;;;;;;;;;;;;;;5114573;28;915;-71
2022/07/26 05:52:14;;;;;;;;;;;;;;;;;;5114644;28;884;-71
2022/07/26 05:54:39;;;;;;;;;;;;;;;;;;5114679;28;955;-71
2022/07/26 05:57:04;;;;;;;;;;;;;;;;;;5114852;28;899;-70
2022/07/26 05:59:30;;;;;;;;;;;;;;;;;;5113537;28;940;-71
2022/07/26 06:01:55;;;;;;;;;;;;;;;;;;5115504;28;943;-72
2022/07/26 06:04:21;;;;;;;;;;;;;;;;;;5110393;28;1468;-71
2022/07/26 06:06:47;;;;;;;;;;;;;;;;;;5091517;28;1906;-71
2022/07/26 06:09:12;;;;;;;;;;;;;;;;;;5081788;28;1100;-71
2022/07/26 06:11:37;;;;;;;;;;;;;;;;;;5093569;28;1752;-71
2022/07/26 06:14:02;;;;;;;;;;;;;;;;;;5085619;28;1146;-71
2022/07/26 06:16:28;;;;;;;;;;;;;;;;;;5102300;28;2331;-71
2022/07/26 06:18:54;;;;;;;;;;;;;;;;;;5095439;28;1993;-70
2022/07/26 06:21:19;;;;;;;;;;;;;;;;;;5097956;28;977;-70
2022/07/26 06:23:44;;;;;;;;;;;;;;;;;;5101627;28;1167;-71
2022/07/26 06:26:11;;;;;;;;;;;;;;;;;;5109910;28;1232;-70
2022/07/26 06:28:38;;;;;;;;;;;;;;;;;;5115074;28;1905;-71
2022/07/26 06:31:03;;;;;;;;;;;;;;;;;;5115684;28;840;-71
2022/07/26 06:33:28;;;;;;;;;;;;;;;;;;5115795;28;900;-71
2022/07/26 06:35:54;;;;;;;;;;;;;;;;;;5116144;28;999;-71
2022/07/26 06:38:19;;;;;;;;;;;;;;;;;;5114220;28;1515;-71
2022/07/26 06:40:45;;;;;;;;;;;;;;;;;;5118569;28;908;-71
2022/07/26 06:43:10;;;;;;;;;;;;;;;;;;5115994;28;1000;-71
2022/07/26 06:45:35;;;;;;;;;;;;;;;;;;5101050;28;1211;-71
2022/07/26 06:48:00;;;;;;;;;;;;;;;;;;5092074;28;1996;-72
2022/07/26 06:50:26;;;;;;;;;;;;;;;;;;5092770;28;1484;-72
2022/07/26 06:52:51;;;;;;;;;;;;;;;;;;5096074;28;1160;-72
2022/07/26 06:55:16;;;;;;;;;;;;;;;;;;5094923;28;1046;-71
2022/07/26 06:57:41;;;;;;;;;;;;;;;;;;5079037;28;1293;-71
2022/07/26 07:00:07;;;;;;;;;;;;;;;;;;5094993;28;899;-71
2022/07/26 07:02:33;;;;;;;;;;;;;;;;;;5095860;28;1021;-72
2022/07/26 07:04:58;;;;;;;;;;;;;;;;;;5096194;28;1268;-72
2022/07/26 07:07:23;;;;;;;;;;;;;;;;;;5093878;28;1961;-71
2022/07/26 07:09:49;;;;;;;;;;;;;;;;;;5095774;28;915;-72
2022/07/26 07:12:14;;;;;;;;;;;;;;;;;;5096509;28;857;-72
2022/07/26 07:14:40;;;;;;;;;;;;;;;;;;5096941;28;816;-72
2022/07/26 07:17:05;;;;;;;;;;;;;;;;;;5095773;28;900;-72
2022/07/26 07:19:33;;;;;;;;;;;;;;;;;;5095244;28;825;-71
2022/07/26 07:21:59;;;;;;;;;;;;;;;;;;5094766;28;1216;-71
2022/07/26 07:24:25;;;;;;;;;;;;;;;;;;5096406;28;963;-71
2022/07/26 07:26:50;;;;;;;;;;;;;;;;;;5094205;28;1969;-71
2022/07/26 07:29:18;;;;;;;;;;;;;;;;;;5092879;28;907;-71
2022/07/26 07:31:46;;;;;;;;;;;;;;;;;;5092930;28;871;-71
2022/07/26 07:34:12;;;;;;;;;;;;;;;;;;5091107;28;1463;-70
2022/07/26 07:36:37;;;;;;;;;;;;;;;;;;5091734;28;1133;-71
2022/07/26 07:39:02;;;;;;;;;;;;;;;;;;5092828;28;946;-72
2022/07/26 07:41:28;;;;;;;;;;;;;;;;;;5092444;28;893;-70
2022/07/26 07:43:53;;;;;;;;;;;;;;;;;;5092647;28;860;-71
2022/07/26 07:46:18;;;;;;;;;;;;;;;;;;5090977;28;888;-70
2022/07/26 07:48:43;;;;;;;;;;;;;;;;;;5092257;28;1905;-70
2022/07/26 07:51:09;;;;;;;;;;;;;;;;;;5092493;28;935;-71
2022/07/26 07:53:34;;;;;;;;;;;;;;;;;;5092125;28;974;-71
2022/07/26 07:55:59;;;;;;;;;;;;;;;;;;5093928;28;904;-72
2022/07/26 07:58:25;;;;;;;;;;;;;;;;;;5096155;28;824;-71
2022/07/26 08:00:50;;;;;;;;;;;;;;;;;;5097051;28;840;-71
2022/07/26 08:03:16;;;;;;;;;;;;;;;;;;5096757;28;927;-71
2022/07/26 08:05:41;;;;;;;;;;;;;;;;;;5097134;28;1038;-71
2022/07/26 08:08:07;;;;;;;;;;;;;;;;;;5079634;28;1918;-71
2022/07/26 08:10:32;;;;;;;;;;;;;;;;;;5095637;28;1159;-71
2022/07/26 08:12:57;;;;;;;;;;;;;;;;;;5104320;28;1223;-71
2022/07/26 08:15:23;;;;;;;;;;;;;;;;;;5099273;28;1153;-71
2022/07/26 08:17:48;;;;;;;;;;;;;;;;;;5096736;28;852;-71
2022/07/26 08:20:14;;;;;;;;;;;;;;;;;;5077561;28;1170;-71
2022/07/26 08:22:39;;;;;;;;;;;;;;;;;;5096431;28;844;-72
2022/07/26 08:25:06;;;;;;;;;;;;;;;;;;5094930;28;891;-71
2022/07/26 08:27:31;;;;;;;;;;;;;;;;;;5094459;28;1969;-71
2022/07/26 08:29:56;;;;;;;;;;;;;;;;;;5096288;28;793;-71
2022/07/26 08:32:21;;;;;;;;;;;;;;;;;;5095953;28;852;-71
2022/07/26 08:34:47;;;;;;;;;;;;;;;;;;5096415;28;991;-72
2022/07/26 08:37:12;;;;;;;;;;;;;;;;;;5095068;28;1066;-71
2022/07/26 08:39:37;;;;;;;;;;;;;;;;;;5095309;28;813;-71
2022/07/26 08:42:03;;;;;;;;;;;;;;;;;;5094988;28;1046;-70
2022/07/26 08:44:28;;;;;;;;;;;;;;;;;;5094451;28;1254;-71
2022/07/26 08:46:53;;;;;;;;;;;;;;;;;;5095765;28;1973;-71
2022/07/26 08:49:19;;;;;;;;;;;;;;;;;;5094174;28;828;-70
2022/07/26 08:51:44;;;;;;;;;;;;;;;;;;5095810;28;881;-71
2022/07/26 08:54:12;;;;;;;;;;;;;;;;;;5097800;28;1779;-70
2022/07/26 08:56:40;;;;;;;;;;;;;;;;;;5101083;28;1304;-71
2022/07/26 08:59:13;;;;;;;;;;;;;;;;;;5101134;28;1210;-70
2022/07/26 09:01:49;;;;;;;;;;;;;;;;;;5105029;28;1191;-70
2022/07/26 09:04:22;;;;;;;;;;;;;;;;;;5103566;28;1171;-70
2022/07/26 09:07:01;;;;;;;;;;;;;;;;;;5096693;28;1909;-71
2022/07/26 09:09:27;;;;;;;;;;;;;;;;;;5092960;28;1112;-71
2022/07/26 09:11:52;;;;;;;;;;;;;;;;;;5094935;28;931;-71
2022/07/26 09:14:17;;;;;;;;;;;;;;;;;;5093339;28;840;-71
2022/07/26 09:16:55;;;;;;;;;;;;;;;;;;5093742;28;1263;-71
2022/07/26 09:19:22;;;;;;;;;;;;;;;;;;5095420;28;825;-71
2022/07/26 09:21:48;;;;;;;;;;;;;;;;;;5095509;28;930;-71
2022/07/26 09:24:28;;;;;;;;;;;;;;;;;;5095207;28;892;-71
2022/07/26 09:26:54;;;;;;;;;;;;;;;;;;5094187;28;1914;-71
2022/07/26 09:29:20;;;;;;;;;;;;;;;;;;5094072;28;796;-72
2022/07/26 09:31:45;;;;;;;;;;;;;;;;;;5094906;28;832;-71
2022/07/26 09:34:10;;;;;;;;;;;;;;;;;;5095015;28;832;-71
2022/07/26 09:36:52;;;;;;;;;;;;;;;;;;5094033;28;888;-72
2022/07/26 09:39:17;;;;;;;;;;;;;;;;;;5094793;28;932;-71
2022/07/26 09:41:44;;;;;;;;;;;;;;;;;;5094965;28;928;-70
2022/07/26 09:44:20;;;;;;;;;;;;;;;;;;5094778;28;828;-72
2022/07/26 09:46:53;;;;;;;;;;;;;;;;;;5094156;28;1906;-71
2022/07/26 09:49:20;;;;;;;;;;;;;;;;;;5094060;28;833;-71
2022/07/26 09:51:48;;;;;;;;;;;;;;;;;;5094433;28;841;-71
2022/07/26 09:54:30;;;;;;;;;;;;;;;;;;5094042;28;836;-71
2022/07/26 09:56:55;;;;;;;;;;;;;;;;;;5094009;28;845;-72
2022/07/26 09:59:22;;;;;;;;;;;;;;;;;;5094335;28;856;-72
2022/07/26 10:01:47;;;;;;;;;;;;;;;;;;5092731;28;1154;-72
2022/07/26 10:04:13;;;;;;;;;;;;;;;;;;5092518;28;1005;-71
2022/07/26 10:06:39;;;;;;;;;;;;;;;;;;5092901;28;1977;-71
2022/07/26 10:09:04;;;;;;;;;;;;;;;;;;5094045;28;1014;-71
2022/07/26 10:11:59;;;;;;;;;;;;;;;;;;5093707;28;864;-72
2022/07/26 10:14:56;;;;;;;;;;;;;;;;;;5084066;28;1221;-71
2022/07/26 10:17:24;;;;;;;;;;;;;;;;;;5070376;28;1293;-71
2022/07/26 10:19:50;;;;;;;;;;;;;;;;;;5092391;28;1158;-71
2022/07/26 10:22:22;;;;;;;;;;;;;;;;;;5093472;28;1203;-71
2022/07/26 10:24:47;;;;;;;;;;;;;;;;;;5093575;28;919;-71
2022/07/26 10:27:45;;;;;;;;;;;;;;;;;;5092506;28;1993;-71
2022/07/26 10:30:21;;;;;;;;;;;;;;;;;;5070245;28;1210;-71
2022/07/26 10:32:49;;;;;;;;;;;;;;;;;;5093952;28;928;-71
2022/07/26 10:35:32;;;;;;;;;;;;;;;;;;5093229;28;844;-71
2022/07/26 10:38:03;;;;;;;;;;;;;;;;;;5093601;28;769;-71
2022/07/26 10:40:31;;;;;;;;;;;;;;;;;;5093357;28;972;-71
2022/07/26 10:43:06;;;;;;;;;;;;;;;;;;5092380;28;1200;-72
2022/07/26 10:45:31;;;;;;;;;;;;;;;;;;5091537;28;1182;-71
2022/07/26 10:48:12;;;;;;;;;;;;;;;;;;5074929;28;1910;-72
2022/07/26 10:50:38;;;;;;;;;;;;;;;;;;5092630;28;840;-71
2022/07/26 10:53:03;;;;;;;;;;;;;;;;;;5091556;28;1205;-71
2022/07/26 10:55:29;;;;;;;;;;;;;;;;;;5092289;28;836;-72
2022/07/26 10:57:54;;;;;;;;;;;;;;;;;;5091545;28;1222;-71
2022/07/26 11:00:23;;;;;;;;;;;;;;;;;;5092372;28;915;-71
2022/07/26 11:02:52;;;;;;;;;;;;;;;;;;5092434;28;982;-71
2022/07/26 11:05:18;;;;;;;;;;;;;;;;;;5092025;28;1000;-71
2022/07/26 11:07:47;;;;;;;;;;;;;;;;;;5092581;28;1887;-71
2022/07/26 11:10:13;;;;;;;;;;;;;;;;;;5092667;28;848;-71
2022/07/26 11:12:38;;;;;;;;;;;;;;;;;;5074336;28;1166;-71
2022/07/26 11:15:14;;;;;;;;;;;;;;;;;;5091908;28;841;-71
2022/07/26 11:17:39;;;;;;;;;;;;;;;;;;5092180;28;931;-71
2022/07/26 11:20:04;;;;;;;;;;;;;;;;;;5092591;28;829;-71
2022/07/26 11:22:30;;;;;;;;;;;;;;;;;;5099839;28;1188;-71
2022/07/26 11:24:56;;;;;;;;;;;;;;;;;;5111660;28;1199;-71
2022/07/26 11:27:21;;;;;;;;;;;;;;;;;;5099181;28;1977;-71
2022/07/26 11:29:47;;;;;;;;;;;;;;;;;;5111458;28;1282;-71
2022/07/26 11:32:16;;;;;;;;;;;;;;;;;;5112043;28;1014;-70
2022/07/26 11:34:43;;;;;;;;;;;;;;;;;;5111378;28;1293;-70
2022/07/26 11:37:09;;;;;;;;;;;;;;;;;;5112690;28;884;-71
2022/07/26 11:39:35;;;;;;;;;;;;;;;;;;5112496;28;887;-70
2022/07/26 11:42:11;;;;;;;;;;;;;;;;;;5111243;28;1354;-70
2022/07/26 11:44:37;;;;;;;;;;;;;;;;;;5112267;28;852;-70
2022/07/26 11:47:09;;;;;;;;;;;;;;;;;;5112409;28;1982;-70
2022/07/26 11:49:34;;;;;;;;;;;;;;;;;;5112213;28;982;-70
2022/07/26 11:52:01;;;;;;;;;;;;;;;;;;5093975;28;1266;-70
2022/07/26 11:54:30;;;;;;;;;;;;;;;;;;5112213;28;951;-70
2022/07/26 11:56:59;;;;;;;;;;;;;;;;;;5112303;28;821;-70
2022/07/26 11:59:27;;;;;;;;;;;;;;;;;;5112059;28;958;-70
2022/07/26 12:01:53;;;;;;;;;;;;;;;;;;5111067;28;1522;-70
2022/07/26 12:04:20;;;;;;;;;;;;;;;;;;5112461;28;868;-70
2022/07/26 12:06:46;;;;;;;;;;;;;;;;;;5112830;28;1902;-70
2022/07/26 12:09:26;;;;;;;;;;;;;;;;;;5112696;28;1088;-70
2022/07/26 12:11:51;;;;;;;;;;;;;;;;;;5113206;28;912;-70
2022/07/26 12:14:23;;;;;;;;;;;;;;;;;;5112444;28;991;-70
2022/07/26 12:16:48;;;;;;;;;;;;;;;;;;5111342;28;1091;-71
2022/07/26 12:19:16;;;;;;;;;;;;;;;;;;5112278;28;825;-69
2022/07/26 12:22:00;;;;;;;;;;;;;;;;;;5113441;28;923;-70
2022/07/26 12:24:42;;;;;;;;;;;;;;;;;;5111248;28;1240;-70
2022/07/26 12:27:15;;;;;;;;;;;;;;;;;;5113103;28;1961;-71
2022/07/26 12:29:42;;;;;;;;;;;;;;;;;;5113459;28;919;-71
2022/07/26 12:32:09;;;;;;;;;;;;;;;;;;5113357;28;884;-70
2022/07/26 12:34:35;;;;;;;;;;;;;;;;;;5112066;28;848;-70
2022/07/26 12:37:07;;;;;;;;;;;;;;;;;;5111037;28;1158;-70
2022/07/26 12:39:32;;;;;;;;;;;;;;;;;;5111116;28;955;-70
2022/07/26 12:41:58;;;;;;;;;;;;;;;;;;5112226;28;825;-70
2022/07/26 12:44:23;;;;;;;;;;;;;;;;;;5115310;28;990;-71
2022/07/26 12:46:48;;;;;;;;;;;;;;;;;;5114384;28;1967;-71
2022/07/26 12:49:13;;;;;;;;;;;;;;;;;;5116026;28;931;-70
2022/07/26 12:51:40;;;;;;;;;;;;;;;;;;5097231;28;1418;-72
2022/07/26 12:54:05;;;;;;;;;;;;;;;;;;5114435;28;1253;-70
2022/07/26 12:56:31;;;;;;;;;;;;;;;;;;5115245;28;899;-70
2022/07/26 12:58:59;;;;;;;;;;;;;;;;;;5096926;28;1234;-70
2022/07/26 13:01:25;;;;;;;;;;;;;;;;;;5115298;28;946;-70
2022/07/26 13:03:50;;;;;;;;;;;;;;;;;;5113847;28;1313;-70
2022/07/26 13:06:15;;;;;;;;;;;;;;;;;;5114197;28;905;-71
2022/07/26 13:08:41;;;;;;;;;;;;;;;;;;5113898;28;1910;-71
2022/07/26 13:11:06;;;;;;;;;;;;;;;;;;5114281;28;880;-70
2022/07/26 13:13:32;;;;;;;;;;;;;;;;;;5114924;28;915;-71
2022/07/26 13:15:57;;;;;;;;;;;;;;;;;;5113773;28;1081;-71
2022/07/26 13:18:22;;;;;;;;;;;;;;;;;;5113762;28;1365;-71
2022/07/26 13:20:47;;;;;;;;;;;;;;;;;;5115190;28;841;-70
2022/07/26 13:23:14;;;;;;;;;;;;;;;;;;5096764;28;1256;-70
2022/07/26 13:25:39;;;;;;;;;;;;;;;;;;5115146;27;941;-70
2022/07/26 13:28:04;;;;;;;;;;;;;;;;;;5113346;28;1921;-70
2022/07/26 13:30:29;;;;;;;;;;;;;;;;;;5113507;28;796;-70
2022/07/26 13:32:54;;;;;;;;;;;;;;;;;;5114577;28;1038;-70
2022/07/26 13:35:20;;;;;;;;;;;;;;;;;;5113317;28;1308;-71
2022/07/26 13:37:45;;;;;;;;;;;;;;;;;;5096868;28;1166;-70
2022/07/26 13:40:10;;;;;;;;;;;;;;;;;;5113713;28;1066;-70
2022/07/26 13:42:36;;;;;;;;;;;;;;;;;;5114946;28;935;-70
2022/07/26 13:45:02;;;;;;;;;;;;;;;;;;5113555;28;1449;-71
2022/07/26 13:47:27;;;;;;;;;;;;;;;;;;5113190;28;1965;-70
2022/07/26 13:49:52;;;;;;;;;;;;;;;;;;5113377;28;1127;-71
2022/07/26 13:52:18;;;;;;;;;;;;;;;;;;5114551;28;817;-70
2022/07/26 13:55:02;;;;;;;;;;;;;;;;;;5113629;28;903;-70
2022/07/26 13:57:27;;;;;;;;;;;;;;;;;;5114757;28;899;-70
2022/07/26 13:59:55;;;;;;;;;;;;;;;;;;5114736;28;915;-70
2022/07/26 14:02:20;;;;;;;;;;;;;;;;;;5114566;28;840;-71
2022/07/26 14:04:47;;;;;;;;;;;;;;;;;;5114779;28;926;-70
2022/07/26 14:07:12;;;;;;;;;;;;;;;;;;5114481;28;1902;-70
2022/07/26 14:09:37;;;;;;;;;;;;;;;;;;5113238;28;1376;-70
2022/07/26 14:12:03;;;;;;;;;;;;;;;;;;5113621;28;951;-70
2022/07/26 14:14:28;;;;;;;;;;;;;;;;;;5112450;28;868;-70
2022/07/26 14:16:53;;;;;;;;;;;;;;;;;;5114290;28;885;-70
2022/07/26 14:19:18;;;;;;;;;;;;;;;;;;5112836;28;847;-70
2022/07/26 14:21:44;;;;;;;;;;;;;;;;;;5096122;28;1198;-71
2022/07/26 14:24:09;;;;;;;;;;;;;;;;;;5114464;28;887;-71
2022/07/26 14:26:34;;;;;;;;;;;;;;;;;;5114303;28;953;-71
2022/07/26 14:29:00;;;;;;;;;;;;;;;;;;5114003;28;1967;-71
2022/07/26 14:31:25;;;;;;;;;;;;;;;;;;5112406;28;1158;-70
2022/07/26 14:33:50;;;;;;;;;;;;;;;;;;5114176;28;863;-71
2022/07/26 14:36:16;;;;;;;;;;;;;;;;;;5114204;28;825;-70
2022/07/26 14:38:42;;;;;;;;;;;;;;;;;;5113075;28;1208;-71
2022/07/26 14:41:07;;;;;;;;;;;;;;;;;;5113518;28;885;-71
2022/07/26 14:43:33;;;;;;;;;;;;;;;;;;5113197;28;975;-71
2022/07/26 14:45:58;;;;;;;;;;;;;;;;;;5113772;28;832;-71
2022/07/26 14:48:24;;;;;;;;;;;;;;;;;;5111711;28;1964;-70
2022/07/26 14:50:49;;;;;;;;;;;;;;;;;;5112053;28;1337;-70
2022/07/26 14:53:15;;;;;;;;;;;;;;;;;;5112937;28;1151;-70
2022/07/26 14:55:40;;;;;;;;;;;;;;;;;;5113119;28;1365;-70
2022/07/26 14:58:05;;;;;;;;;;;;;;;;;;5113637;28;979;-70
2022/07/26 15:00:31;;;;;;;;;;;;;;;;;;5113585;28;844;-70
2022/07/26 15:02:56;;;;;;;;;;;;;;;;;;5114436;28;1006;-70
2022/07/26 15:05:22;;;;;;;;;;;;;;;;;;5112527;28;915;-70
2022/07/26 15:07:47;;;;;;;;;;;;;;;;;;5111904;28;1968;-70
2022/07/26 15:10:13;;;;;;;;;;;;;;;;;;5111593;28;1259;-70
2022/07/26 15:12:39;;;;;;;;;;;;;;;;;;5113398;28;800;-71
2022/07/26 15:15:05;;;;;;;;;;;;;;;;;;5111942;28;1387;-70
2022/07/26 15:17:30;;;;;;;;;;;;;;;;;;5093781;28;1309;-71
2022/07/26 15:19:55;;;;;;;;;;;;;;;;;;5093079;28;903;-71
2022/07/26 15:22:21;;;;;;;;;;;;;;;;;;5091312;28;1280;-71
2022/07/26 15:24:46;;;;;;;;;;;;;;;;;;5093488;28;892;-71
2022/07/26 15:27:11;;;;;;;;;;;;;;;;;;5093049;28;1917;-71
2022/07/26 15:29:37;;;;;;;;;;;;;;;;;;5092153;28;844;-70
2022/07/26 15:32:03;;;;;;;;;;;;;;;;;;5094894;28;1135;-70
2022/07/26 15:34:28;;;;;;;;;;;;;;;;;;5095810;28;1167;-71
2022/07/26 15:36:53;;;;;;;;;;;;;;;;;;5092038;28;904;-70
2022/07/26 15:39:18;;;;;;;;;;;;;;;;;;5092932;28;888;-70
2022/07/26 15:41:45;;;;;;;;;;;;;;;;;;5094048;28;1054;-70
2022/07/26 15:44:10;;;;;;;;;;;;;;;;;;5093194;28;895;-71
2022/07/26 15:46:36;;;;;;;;;;;;;;;;;;5090978;28;1146;-71
2022/07/26 15:49:01;;;;;;;;;;;;;;;;;;5084086;28;1894;-71
2022/07/26 15:51:26;;;;;;;;;;;;;;;;;;5099411;28;1099;-70
2022/07/26 15:53:52;;;;;;;;;;;;;;;;;;5096126;28;1143;-70
2022/07/26 15:56:17;;;;;;;;;;;;;;;;;;5102363;28;1218;-70
2022/07/26 15:58:42;;;;;;;;;;;;;;;;;;5090829;28;1160;-70
2022/07/26 16:01:08;;;;;;;;;;;;;;;;;;5092584;28;856;-71
2022/07/26 16:03:33;;;;;;;;;;;;;;;;;;5090540;28;1140;-71
2022/07/26 16:05:58;;;;;;;;;;;;;;;;;;5095536;28;1235;-70
2022/07/26 16:08:24;;;;;;;;;;;;;;;;;;5091972;28;1894;-71
2022/07/26 16:10:49;;;;;;;;;;;;;;;;;;5107278;28;1263;-71
2022/07/26 16:13:14;;;;;;;;;;;;;;;;;;5108491;28;1179;-71
2022/07/26 16:15:40;;;;;;;;;;;;;;;;;;5106205;28;1147;-71
2022/07/26 16:18:05;;;;;;;;;;;;;;;;;;5115285;28;1297;-71
2022/07/26 16:20:30;;;;;;;;;;;;;;;;;;5115521;28;1186;-72
2022/07/26 16:22:56;;;;;;;;;;;;;;;;;;5116180;28;1137;-70
2022/07/26 16:25:21;;;;;;;;;;;;;;;;;;5115583;28;1281;-70
2022/07/26 16:27:47;;;;;;;;;;;;;;;;;;5117838;27;1909;-70
2022/07/26 16:30:15;;;;;;;;;;;;;;;;;;5117616;28;979;-70
2022/07/26 16:32:40;;;;;;;;;;;;;;;;;;5116365;28;1265;-70
2022/07/26 16:35:07;;;;;;;;;;;;;;;;;;5098862;28;1187;-70
2022/07/26 16:37:32;;;;;;;;;;;;;;;;;;5095020;28;1136;-70
2022/07/26 16:39:57;;;;;;;;;;;;;;;;;;5095859;28;1203;-70
2022/07/26 16:42:22;;;;;;;;;;;;;;;;;;5095378;28;1254;-70
2022/07/26 16:44:48;;;;;;;;;;;;;;;;;;5096268;28;1155;-70
2022/07/26 16:47:13;;;;;;;;;;;;;;;;;;5096851;28;1905;-70
2022/07/26 16:49:38;;;;;;;;;;;;;;;;;;5096251;28;884;-70
2022/07/26 16:52:04;;;;;;;;;;;;;;;;;;5095871;28;750;-70
2022/07/26 16:54:29;;;;;;;;;;;;;;;;;;5097205;28;1038;-70
2022/07/26 16:56:55;;;;;;;;;;;;;;;;;;5079040;28;1183;-70
2022/07/26 16:59:20;;;;;;;;;;;;;;;;;;5095860;28;883;-71
2022/07/26 17:01:46;;;;;;;;;;;;;;;;;;5097207;28;974;-70
2022/07/26 17:04:11;;;;;;;;;;;;;;;;;;5095566;28;1032;-70
2022/07/26 17:06:37;;;;;;;;;;;;;;;;;;5095412;28;1302;-70
2022/07/26 17:09:02;;;;;;;;;;;;;;;;;;5095480;28;1906;-70
2022/07/26 17:11:27;;;;;;;;;;;;;;;;;;5095566;28;1273;-70